createdAt,value
2019-02-16T00:02:42.929Z,57.83
2019-02-16T00:06:48.197Z,57.51
2019-02-16T00:10:53.365Z,58.06
2019-02-16T00:14:58.541Z,57.55
2019-02-16T00:19:03.666Z,58.98
2019-02-16T00:23:08.827Z,59.18
2019-02-16T00:27:13.880Z,58.02
2019-02-16T00:31:19.145Z,60.11
2019-02-16T00:35:24.291Z,61.12
2019-02-16T00:39:29.441Z,60.26
2019-02-16T00:43:34.852Z,62.01
2019-02-16T00:47:39.922Z,61.48
2019-02-16T00:51:45.192Z,61.17
2019-02-16T00:55:50.317Z,61.33
2019-02-16T00:59:55.765Z,60.94
2019-02-16T01:04:00.922Z,60.65
2019-02-16T01:08:06.141Z,60.28
2019-02-16T01:12:11.248Z,61.13
2019-02-16T01:16:16.375Z,62.53
2019-02-16T01:20:21.531Z,62.13
2019-02-16T01:24:26.627Z,61.64
2019-02-16T01:28:32.679Z,60.44
2019-02-16T01:32:37.770Z,62.00
2019-02-16T01:36:42.948Z,62.16
2019-02-16T01:40:48.065Z,60.44
2019-02-16T01:44:53.254Z,60.27
2019-02-16T01:48:58.397Z,60.05
2019-02-16T01:53:03.528Z,63.28
2019-02-16T01:57:08.642Z,60.65
2019-02-16T02:01:13.835Z,61.91
2019-02-16T02:05:18.915Z,61.46
2019-02-16T02:09:24.256Z,62.93
2019-02-16T02:13:30.376Z,61.95
2019-02-16T02:17:35.466Z,63.17
2019-02-16T02:21:41.387Z,61.66
2019-02-16T02:25:46.652Z,62.01
2019-02-16T02:29:51.837Z,61.83
2019-02-16T02:33:56.815Z,62.39
2019-02-16T02:38:01.925Z,63.56
2019-02-16T02:42:07.091Z,63.09
2019-02-16T02:46:12.247Z,63.41
2019-02-16T02:50:17.343Z,63.75
2019-02-16T02:54:23.470Z,63.10
2019-02-16T02:58:28.568Z,63.24
2019-02-16T03:02:34.658Z,62.94
2019-02-16T03:06:39.804Z,62.93
2019-02-16T03:10:44.965Z,63.92
2019-02-16T03:14:50.102Z,65.36
2019-02-16T03:18:55.216Z,65.64
2019-02-16T03:23:17.246Z,64.15
2019-02-16T03:28:02.298Z,63.13
2019-02-16T03:32:52.852Z,62.30
2019-02-16T03:37:54.053Z,66.14
2019-02-16T03:41:59.187Z,64.53
2019-02-16T03:46:04.666Z,65.15
2019-02-16T03:50:09.760Z,65.76
2019-02-16T03:54:14.943Z,67.74
2019-02-16T03:58:20.120Z,67.64
2019-02-16T04:02:25.240Z,68.47
2019-02-16T04:06:30.656Z,69.16
2019-02-16T04:10:35.878Z,64.74
2019-02-16T04:14:40.980Z,66.84
2019-02-16T04:18:46.164Z,67.45
2019-02-16T04:22:51.304Z,67.73
2019-02-16T04:26:56.380Z,65.86
2019-02-16T04:31:02.028Z,67.34
2019-02-16T04:35:10.067Z,66.53
2019-02-16T04:39:15.202Z,68.17
2019-02-16T04:43:20.353Z,67.89
2019-02-16T04:47:25.506Z,67.96
2019-02-16T04:51:30.585Z,68.23
2019-02-16T04:55:35.660Z,68.35
2019-02-16T04:59:40.828Z,67.98
2019-02-16T05:03:45.908Z,68.96
2019-02-16T05:07:50.997Z,69.00
2019-02-16T05:11:56.200Z,68.87
2019-02-16T05:16:01.317Z,69.95
2019-02-16T05:20:06.625Z,69.72
2019-02-16T05:24:12.756Z,69.61
2019-02-16T05:28:17.819Z,69.00
2019-02-16T05:32:22.906Z,71.62
2019-02-16T05:36:27.966Z,71.53
2019-02-16T05:40:33.172Z,69.50
2019-02-16T05:44:42.680Z,69.97
2019-02-16T05:48:48.756Z,70.03
2019-02-16T05:52:54.721Z,70.28
2019-02-16T05:56:59.963Z,71.83
2019-02-16T06:01:05.171Z,70.00
2019-02-16T06:05:10.199Z,70.59
2019-02-16T06:09:15.273Z,68.81
2019-02-16T06:13:20.472Z,69.23
2019-02-16T06:17:25.619Z,68.18
2019-02-16T06:21:30.708Z,71.72
2019-02-16T06:25:35.813Z,71.13
2019-02-16T06:29:41.991Z,71.82
2019-02-16T06:33:47.070Z,71.58
2019-02-16T06:37:52.144Z,70.69
2019-02-16T06:41:57.320Z,70.54
2019-02-16T06:46:02.511Z,70.52
2019-02-16T06:50:07.635Z,71.23
2019-02-16T06:54:12.700Z,70.26
2019-02-16T06:58:17.829Z,69.85
2019-02-16T07:02:23.798Z,69.65
2019-02-16T07:06:28.970Z,67.67
2019-02-16T07:10:34.063Z,66.90
2019-02-16T07:14:39.236Z,70.27
2019-02-16T07:19:12.609Z,71.42
2019-02-16T07:23:22.586Z,70.15
2019-02-16T07:27:24.580Z,68.60
2019-02-16T07:31:29.734Z,69.14
2019-02-16T07:35:34.904Z,68.91
2019-02-16T07:39:40.104Z,68.80
2019-02-16T07:44:03.340Z,68.40
2019-02-16T07:48:39.228Z,68.11
2019-02-16T07:53:06.642Z,69.34
2019-02-16T07:58:17.541Z,65.39
2019-02-16T08:11:24.049Z,62.31
2019-02-16T08:16:00.681Z,61.96
2019-02-16T08:20:39.763Z,57.22
2019-02-16T08:25:06.722Z,58.41
2019-02-16T08:29:17.369Z,52.42
2019-02-16T08:33:39.955Z,55.81
2019-02-16T08:38:05.915Z,53.03
2019-02-16T08:42:23.419Z,49.96
2019-02-16T08:46:47.831Z,51.11
2019-02-16T08:51:24.131Z,50.19
2019-02-16T08:55:51.053Z,48.68
2019-02-16T09:00:22.281Z,47.80
2019-02-16T09:04:44.868Z,48.19
2019-02-16T09:09:07.390Z,48.17
2019-02-16T09:13:29.905Z,45.42
2019-02-16T09:17:52.774Z,45.42
2019-02-16T09:22:09.698Z,45.85
2019-02-16T09:26:33.100Z,47.87
2019-02-16T09:30:48.552Z,47.00
2019-02-16T09:35:08.974Z,46.04
2019-02-16T09:39:25.909Z,43.56
2019-02-16T09:43:48.497Z,43.45
2019-02-16T09:48:12.620Z,43.59
2019-02-16T09:52:40.205Z,45.91
2019-02-16T09:57:04.972Z,44.31
2019-02-16T10:01:19.691Z,41.18
2019-02-16T10:05:41.502Z,42.17
2019-02-16T10:10:10.750Z,43.07
2019-02-16T10:14:39.198Z,40.84
2019-02-16T10:19:12.292Z,39.36
2019-02-16T10:23:33.245Z,39.01
2019-02-16T10:27:50.728Z,40.23
2019-02-16T10:32:17.682Z,41.03
2019-02-16T10:36:29.483Z,41.23
2019-02-16T10:40:56.638Z,41.29
2019-02-16T10:45:19.672Z,40.95
2019-02-16T10:49:30.784Z,39.36
2019-02-16T10:54:09.817Z,37.94
2019-02-16T10:58:32.406Z,38.36
2019-02-16T11:03:08.583Z,37.36
2019-02-16T11:07:19.355Z,37.67
2019-02-16T11:11:37.760Z,38.50
2019-02-16T11:16:01.821Z,37.96
2019-02-16T11:20:20.774Z,37.88
2019-02-16T11:24:43.307Z,38.35
2019-02-16T11:28:59.210Z,39.18
2019-02-16T11:33:26.041Z,37.94
2019-02-16T11:37:50.168Z,39.01
2019-02-16T11:42:17.179Z,38.46
2019-02-16T11:46:59.573Z,37.99
2019-02-16T11:51:20.453Z,37.10
2019-02-16T11:55:32.644Z,36.57
2019-02-16T12:00:05.871Z,35.29
2019-02-16T12:04:34.323Z,35.47
2019-02-16T12:08:58.524Z,35.02
2019-02-16T12:13:10.812Z,34.84
2019-02-16T12:17:23.823Z,34.71
2019-02-16T12:21:42.760Z,35.36
2019-02-16T12:26:14.600Z,35.60
2019-02-16T12:30:37.115Z,36.09
2019-02-16T12:35:02.151Z,35.96
2019-02-16T12:39:35.320Z,35.93
2019-02-16T12:43:53.907Z,35.52
2019-02-16T12:48:07.538Z,34.98
2019-02-16T12:52:29.925Z,35.29
2019-02-16T12:56:54.039Z,34.61
2019-02-16T13:01:19.013Z,33.78
2019-02-16T13:05:49.047Z,33.79
2019-02-16T13:10:19.373Z,33.29
2019-02-16T13:14:38.707Z,33.14
2019-02-16T13:19:08.747Z,32.72
2019-02-16T13:23:30.750Z,31.95
2019-02-16T13:27:44.761Z,31.66
2019-02-16T13:31:59.292Z,31.21
2019-02-16T13:36:29.960Z,31.76
2019-02-16T13:41:00.239Z,31.82
2019-02-16T13:45:12.431Z,32.70
2019-02-16T13:49:22.769Z,31.53
2019-02-16T13:53:41.809Z,31.87
2019-02-16T13:58:05.426Z,31.80
2019-02-16T14:02:29.648Z,30.23
2019-02-16T14:06:56.487Z,29.57
2019-02-16T14:11:22.615Z,29.48
2019-02-16T14:15:45.800Z,29.19
2019-02-16T14:19:50.918Z,28.53
2019-02-16T14:23:56.400Z,29.24
2019-02-16T14:28:01.552Z,29.20
2019-02-16T14:32:06.750Z,28.64
2019-02-16T14:36:12.001Z,28.87
2019-02-16T14:40:17.171Z,28.84
2019-02-16T14:44:22.393Z,30.05
2019-02-16T14:48:27.582Z,27.84
2019-02-16T14:52:32.794Z,27.45
2019-02-16T14:56:37.955Z,26.92
2019-02-16T15:00:43.228Z,27.73
2019-02-16T15:04:48.372Z,29.03
2019-02-16T15:08:53.816Z,28.20
2019-02-16T15:12:59.016Z,28.68
2019-02-16T15:17:04.088Z,29.19
2019-02-16T15:21:09.628Z,28.79
2019-02-16T15:25:14.739Z,28.56
2019-02-16T15:29:19.991Z,29.31
2019-02-16T15:33:25.104Z,29.74
2019-02-16T15:37:30.262Z,28.08
2019-02-16T15:41:35.461Z,29.45
2019-02-16T15:45:43.689Z,29.63
2019-02-16T15:49:48.812Z,30.36
2019-02-16T15:53:54.254Z,30.45
2019-02-16T15:57:59.425Z,31.92
2019-02-16T16:02:04.574Z,31.05
2019-02-16T16:06:09.846Z,31.22
2019-02-16T16:10:28.671Z,32.76
2019-02-16T16:14:51.406Z,34.01
2019-02-16T16:19:17.238Z,35.29
2019-02-16T16:23:41.430Z,35.62
2019-02-16T16:28:08.680Z,35.91
2019-02-16T16:32:41.902Z,36.85
2019-02-16T16:37:00.297Z,36.96
2019-02-16T16:41:17.656Z,37.88
2019-02-16T16:45:41.752Z,38.53
2019-02-16T16:50:04.561Z,39.02
2019-02-16T16:54:15.870Z,39.38
2019-02-16T16:58:36.632Z,39.51
2019-02-16T17:02:56.772Z,40.18
2019-02-16T17:07:29.809Z,40.92
2019-02-16T17:11:56.565Z,41.74
2019-02-16T17:16:10.968Z,42.04
2019-02-16T17:20:33.559Z,42.55
2019-02-16T17:25:01.850Z,43.06
2019-02-16T17:29:16.559Z,44.20
2019-02-16T17:33:27.534Z,46.35
2019-02-16T17:37:38.593Z,46.20
2019-02-16T17:42:03.330Z,46.19
2019-02-16T17:46:30.077Z,48.43
2019-02-16T17:50:59.867Z,50.13
2019-02-16T17:55:14.684Z,50.56
2019-02-16T17:59:41.857Z,51.68
2019-02-16T18:04:14.975Z,54.09
2019-02-16T18:08:34.361Z,53.91
2019-02-16T18:12:57.481Z,51.60
2019-02-16T18:17:21.225Z,54.52
2019-02-16T18:21:43.980Z,54.99
2019-02-16T18:26:00.547Z,55.23
2019-02-16T18:30:42.852Z,57.04
2019-02-16T18:34:58.791Z,55.38
2019-02-16T18:39:26.040Z,57.40
2019-02-16T18:43:48.482Z,57.97
2019-02-16T18:48:07.575Z,59.44
2019-02-16T18:52:43.595Z,60.09
2019-02-16T18:57:10.606Z,60.68
2019-02-16T19:01:26.249Z,60.54
2019-02-16T19:05:59.606Z,57.07
2019-02-16T19:10:16.368Z,57.73
2019-02-16T19:14:31.065Z,57.73
2019-02-16T19:19:07.282Z,58.74
2019-02-16T19:23:32.490Z,60.78
2019-02-16T19:28:00.348Z,61.25
2019-02-16T19:32:24.027Z,62.46
2019-02-16T19:36:39.333Z,63.32
2019-02-16T19:41:06.587Z,62.89
2019-02-16T19:45:31.050Z,63.13
2019-02-16T19:50:01.235Z,63.93
2019-02-16T19:54:16.650Z,64.98
2019-02-16T19:58:39.205Z,65.05
2019-02-16T20:03:01.061Z,64.62
2019-02-16T20:07:25.423Z,63.80
2019-02-16T20:11:55.603Z,63.26
2019-02-16T20:16:27.559Z,64.66
2019-02-16T20:20:50.249Z,62.99
2019-02-16T20:25:20.315Z,62.49
2019-02-16T20:29:44.493Z,64.71
2019-02-16T20:34:08.594Z,65.41
2019-02-16T20:38:20.008Z,64.76
2019-02-16T20:42:49.284Z,66.17
2019-02-16T20:47:01.851Z,66.18
2019-02-16T20:51:28.182Z,65.56
2019-02-16T20:55:55.065Z,66.16
2019-02-16T21:00:26.004Z,67.52
2019-02-16T21:04:45.228Z,67.60
2019-02-16T21:09:08.064Z,67.77
2019-02-16T21:13:18.466Z,65.86
2019-02-16T21:17:45.650Z,66.70
2019-02-16T21:22:08.865Z,64.45
2019-02-16T21:26:37.149Z,64.18
2019-02-16T21:30:44.879Z,64.96
2019-02-16T21:35:07.623Z,67.00
2019-02-16T21:39:40.893Z,68.42
2019-02-16T21:44:07.824Z,69.49
2019-02-16T21:48:30.523Z,69.32
2019-02-16T21:52:50.397Z,68.30
2019-02-16T21:57:21.323Z,69.07
2019-02-16T22:01:43.844Z,70.29
2019-02-16T22:06:06.417Z,69.24
2019-02-16T22:10:26.249Z,67.75
2019-02-16T22:14:31.389Z,68.80
2019-02-16T22:18:36.461Z,66.37
2019-02-16T22:22:41.577Z,65.64
2019-02-16T22:26:46.667Z,65.83
2019-02-16T22:30:51.800Z,68.23
2019-02-16T22:34:56.853Z,68.73
2019-02-16T22:39:02.020Z,69.45
2019-02-16T22:43:08.182Z,69.76
2019-02-16T22:47:13.367Z,70.16
2019-02-16T22:51:19.749Z,70.44
2019-02-16T22:55:24.900Z,70.46
2019-02-16T22:59:29.985Z,69.67
2019-02-16T23:03:35.384Z,70.83
2019-02-16T23:07:40.497Z,70.05
2019-02-16T23:11:45.620Z,70.87
2019-02-16T23:15:50.791Z,68.33
2019-02-16T23:19:55.954Z,69.53
2019-02-16T23:24:01.195Z,70.43
2019-02-16T23:28:06.279Z,70.68
2019-02-16T23:32:12.420Z,70.61
2019-02-16T23:36:17.847Z,71.43
2019-02-16T23:40:23.016Z,71.47
2019-02-16T23:44:28.173Z,71.66
2019-02-16T23:48:33.340Z,71.68
2019-02-16T23:52:38.432Z,72.28
2019-02-16T23:56:43.582Z,72.36
